Time;durP1;ratioP1;P1;durP2;ratioP2;P2;SDS_P1;SDS_P2;PMS_P1;PMS_P2;Temp;Humidity;BMP_temperature;BMP_pressure;BME280_temperature;BME280_humidity;BME280_pressure;Samples;Min_cycle;Max_cycle;Signal;HPM_P1;HPM_P2
2023/07/30 00:00:56;;;;;;;0.85;0.70;;;;;;;20.32;72.98;99776.69;2096905;28;20044;-77
2023/07/30 00:01:59;;;;;;;1.83;0.70;;;;;;;20.30;72.85;99776.25;2089593;28;20036;-79
2023/07/30 00:03:03;;;;;;;1.40;0.75;;;;;;;20.30;73.01;99779.81;2089143;28;20059;-78
2023/07/30 00:04:10;;;;;;;2.10;0.80;;;;;;;20.28;72.89;99776.66;2097855;28;20854;-78
2023/07/30 00:05:14;;;;;;;0.95;0.75;;;;;;;20.24;73.15;99772.25;2106302;28;20181;-78
2023/07/30 00:06:18;;;;;;;1.20;0.70;;;;;;;20.27;72.96;99779.72;2090062;28;20024;-77
2023/07/30 00:07:22;;;;;;;0.70;0.70;;;;;;;20.25;73.05;99784.78;2090450;28;20307;-78
2023/07/30 00:08:29;;;;;;;1.77;0.90;;;;;;;20.24;73.11;99789.44;2108111;28;20027;-78
2023/07/30 00:09:33;;;;;;;1.85;0.70;;;;;;;20.23;73.09;99782.38;2098456;28;20060;-78
2023/07/30 00:10:37;;;;;;;1.40;0.73;;;;;;;20.23;73.06;99793.31;2098907;28;20033;-77
2023/07/30 00:11:45;;;;;;;0.85;0.70;;;;;;;20.22;72.92;99790.97;2095121;28;20841;-77
2023/07/30 00:12:49;;;;;;;1.67;0.70;;;;;;;20.22;72.99;99785.50;2089759;28;20103;-77
2023/07/30 00:13:53;;;;;;;0.80;0.60;;;;;;;20.21;73.06;99786.63;2090754;28;20061;-78
2023/07/30 00:15:00;;;;;;;0.60;0.60;;;;;;;20.20;73.27;99793.25;2104250;28;20886;-79
2023/07/30 00:16:04;;;;;;;1.00;0.60;;;;;;;20.19;73.16;99791.69;2107282;28;20790;-78
2023/07/30 00:17:06;;;;;;;1.15;0.80;;;;;;;20.16;73.01;99784.22;2098558;28;20029;-77
2023/07/30 00:18:10;;;;;;;0.95;0.70;;;;;;;20.17;72.99;99783.84;2091046;28;20073;-78
2023/07/30 00:19:17;;;;;;;1.00;0.65;;;;;;;20.16;73.25;99787.72;2099032;28;20965;-79
2023/07/30 00:20:22;;;;;;;1.33;0.70;;;;;;;20.13;73.30;99788.44;2099538;28;20053;-79
2023/07/30 00:21:23;;;;;;;0.75;0.70;;;;;;;20.14;73.12;99790.84;2090789;28;20025;-79
2023/07/30 00:22:25;;;;;;;1.45;0.70;;;;;;;20.14;73.11;99784.56;2090741;28;20823;-78
2023/07/30 00:23:27;;;;;;;0.85;0.77;;;;;;;20.13;73.14;99793.91;2090196;28;20963;-78
2023/07/30 00:24:28;;;;;;;1.02;0.73;;;;;;;20.12;73.29;99790.38;2090304;28;20041;-78
2023/07/30 00:25:32;;;;;;;0.65;0.50;;;;;;;20.12;73.13;99792.34;2090380;28;20144;-78
2023/07/30 00:26:38;;;;;;;0.60;0.57;;;;;;;20.12;73.19;99793.13;2099386;28;20188;-78
2023/07/30 00:27:40;;;;;;;0.52;0.52;;;;;;;20.11;73.14;99794.28;2093347;28;20139;-78
2023/07/30 00:28:42;;;;;;;2.50;0.70;;;;;;;20.10;73.19;99797.34;2098519;28;20025;-78
2023/07/30 00:29:44;;;;;;;0.73;0.70;;;;;;;20.10;73.34;99798.13;2093320;28;20955;-78
2023/07/30 00:30:52;;;;;;;0.75;0.63;;;;;;;20.09;73.42;99793.84;2098953;28;20102;-78
2023/07/30 00:31:54;;;;;;;1.35;0.80;;;;;;;20.10;73.36;99800.09;2098541;28;20856;-77
2023/07/30 00:32:58;;;;;;;0.73;0.60;;;;;;;20.09;73.41;99798.50;2090468;28;20069;-78
2023/07/30 00:34:03;;;;;;;0.90;0.75;;;;;;;20.07;73.53;99807.06;2082828;28;20132;-77
2023/07/30 00:35:10;;;;;;;0.80;0.70;;;;;;;20.08;73.42;99808.66;2097307;28;20891;-77
2023/07/30 00:36:14;;;;;;;1.45;1.00;;;;;;;20.06;73.47;99801.97;2106795;28;20763;-77
2023/07/30 00:37:16;;;;;;;1.15;0.88;;;;;;;20.04;73.45;99799.59;2091283;28;20928;-77
2023/07/30 00:38:24;;;;;;;0.70;0.70;;;;;;;20.06;73.60;99801.97;2107521;28;20043;-77
2023/07/30 00:39:29;;;;;;;0.98;0.70;;;;;;;20.04;73.61;99796.06;2106826;28;20891;-76
2023/07/30 00:40:32;;;;;;;0.70;0.70;;;;;;;20.03;73.60;99800.75;2107090;28;21324;-77
2023/07/30 00:41:38;;;;;;;0.77;0.75;;;;;;;20.05;73.63;99795.72;2106832;28;20035;-77
2023/07/30 00:42:41;;;;;;;0.98;0.77;;;;;;;20.02;73.80;99788.25;2098764;28;20094;-77
2023/07/30 00:43:45;;;;;;;0.55;0.55;;;;;;;20.04;73.84;99802.31;2098712;28;20030;-77
2023/07/30 00:44:47;;;;;;;1.00;0.88;;;;;;;20.01;74.02;99789.38;2098951;28;20029;-77
2023/07/30 00:45:49;;;;;;;0.77;0.60;;;;;;;20.02;73.87;99798.34;2106644;28;20163;-77
2023/07/30 00:46:50;;;;;;;0.80;0.70;;;;;;;19.96;73.69;99781.50;2107032;28;20020;-77
2023/07/30 00:47:54;;;;;;;0.93;0.70;;;;;;;19.99;73.86;99788.19;2098421;28;20045;-77
2023/07/30 00:48:55;;;;;;;1.88;0.60;;;;;;;20.01;73.88;99792.13;2075609;28;20030;-77
2023/07/30 00:49:57;;;;;;;0.98;0.70;;;;;;;20.02;73.81;99787.44;2082226;28;20745;-77
2023/07/30 00:50:59;;;;;;;0.98;0.65;;;;;;;19.99;73.82;99782.72;2091610;28;20771;-77
2023/07/30 00:52:01;;;;;;;1.88;0.73;;;;;;;20.01;73.96;99783.94;2098175;28;20033;-77
2023/07/30 00:53:03;;;;;;;1.45;0.70;;;;;;;20.00;73.92;99790.53;2107194;28;20028;-77
2023/07/30 00:54:04;;;;;;;0.73;0.50;;;;;;;19.98;73.91;99779.19;2106849;28;20039;-77
2023/07/30 00:55:11;;;;;;;1.00;0.60;;;;;;;19.98;73.99;99781.91;2103173;28;20060;-77
2023/07/30 00:56:18;;;;;;;0.90;0.63;;;;;;;19.98;73.93;99781.91;2107165;28;20020;-77
2023/07/30 00:57:23;;;;;;;0.80;0.65;;;;;;;19.90;73.76;99770.09;2095644;28;20033;-77
2023/07/30 00:58:24;;;;;;;0.60;0.55;;;;;;;19.97;73.94;99780.34;2085113;28;20111;-77
2023/07/30 00:59:25;;;;;;;1.65;0.70;;;;;;;19.96;73.81;99781.50;2081761;28;20918;-78
2023/07/30 01:00:28;;;;;;;2.05;0.70;;;;;;;19.95;74.00;99782.63;2096475;28;20040;-77
2023/07/30 01:01:33;;;;;;;1.05;0.70;;;;;;;19.95;74.07;99782.63;2089900;28;20085;-77
2023/07/30 01:02:37;;;;;;;1.30;0.70;;;;;;;19.91;74.04;99779.06;2075369;28;20034;-78
2023/07/30 01:03:42;;;;;;;0.77;0.70;;;;;;;19.92;74.07;99777.91;2087467;28;20033;-77
2023/07/30 01:04:45;;;;;;;1.02;0.63;;;;;;;19.92;74.12;99783.34;2099645;28;20021;-77
2023/07/30 01:05:48;;;;;;;0.90;0.73;;;;;;;19.91;74.05;99781.78;2115165;28;20799;-77
2023/07/30 01:06:53;;;;;;;1.33;0.60;;;;;;;19.91;74.06;99792.69;2098731;28;20783;-78
2023/07/30 01:07:57;;;;;;;1.42;0.75;;;;;;;19.87;74.10;99787.19;2100023;28;20989;-77
2023/07/30 01:09:03;;;;;;;1.38;0.80;;;;;;;19.85;74.30;99786.75;2106968;28;20044;-77
2023/07/30 01:10:06;;;;;;;1.80;0.70;;;;;;;19.85;74.12;99789.47;2104000;28;20134;-77
2023/07/30 01:11:09;;;;;;;0.77;0.63;;;;;;;19.84;74.18;99792.56;2106801;28;20041;-77
2023/07/30 01:12:16;;;;;;;2.78;0.85;;;;;;;19.83;74.20;99790.97;2106055;28;20044;-76
2023/07/30 01:13:18;;;;;;;1.63;0.60;;;;;;;19.82;74.30;99794.84;2092766;28;20045;-76
2023/07/30 01:14:26;;;;;;;2.25;0.77;;;;;;;19.81;74.33;99796.00;2099997;28;20878;-77
2023/07/30 01:15:31;;;;;;;1.85;0.50;;;;;;;19.79;74.46;99790.91;2103231;28;21406;-78
2023/07/30 01:16:33;;;;;;;1.27;0.63;;;;;;;19.77;74.47;99792.44;2091474;28;20037;-78
2023/07/30 01:17:35;;;;;;;1.60;0.68;;;;;;;19.77;74.29;99793.22;2067275;28;20031;-77
2023/07/30 01:18:38;;;;;;;1.15;0.65;;;;;;;19.77;74.32;99797.91;2076137;28;20037;-77
2023/07/30 01:19:39;;;;;;;1.60;0.70;;;;;;;19.76;74.33;99794.34;2091535;28;20848;-78
2023/07/30 01:20:43;;;;;;;1.00;0.88;;;;;;;19.74;74.43;99793.94;2099566;28;20849;-78
2023/07/30 01:21:48;;;;;;;0.60;0.60;;;;;;;19.73;74.45;99800.53;2100327;28;20874;-77
2023/07/30 01:22:50;;;;;;;0.90;0.70;;;;;;;19.72;74.49;99800.91;2116893;28;20024;-77
2023/07/30 01:23:52;;;;;;;0.65;0.65;;;;;;;19.71;74.54;99804.78;2107926;28;20020;-81
2023/07/30 01:24:53;;;;;;;0.95;0.73;;;;;;;19.68;74.41;99807.06;2101331;28;20922;-77
2023/07/30 01:26:21;;;;;;;1.10;0.80;;;;;;;19.64;74.43;99800.75;2099406;28;20025;-77
2023/07/30 01:27:25;;;;;;;1.85;0.75;;;;;;;19.65;74.70;99805.06;2088442;28;20040;-78
2023/07/30 01:28:27;;;;;;;0.65;0.65;;;;;;;19.63;74.53;99793.66;2088735;28;20029;-78
2023/07/30 01:29:48;;;;;;;1.48;0.70;;;;;;;19.63;74.72;99792.88;2107954;28;20794;-78
2023/07/30 01:30:51;;;;;;;1.02;0.60;;;;;;;19.60;74.77;99799.84;2109901;28;20040;-78
2023/07/30 01:32:01;;;;;;;0.82;0.73;;;;;;;19.59;74.78;99801.00;2116342;28;20074;-78
2023/07/30 01:33:03;;;;;;;0.90;0.70;;;;;;;19.57;74.86;99795.09;2107795;28;20031;-78
2023/07/30 01:34:06;;;;;;;1.80;0.75;;;;;;;19.54;74.75;99801.25;2100009;28;20029;-78
2023/07/30 01:35:13;;;;;;;1.45;0.60;;;;;;;19.51;75.01;99801.97;2099613;28;20033;-78
2023/07/30 01:36:21;;;;;;;1.02;0.73;;;;;;;19.51;74.81;99801.97;2084458;28;20146;-78
2023/07/30 01:37:23;;;;;;;1.88;0.80;;;;;;;19.49;74.89;99804.28;2092677;28;20089;-78
2023/07/30 01:38:29;;;;;;;0.98;0.60;;;;;;;19.46;74.98;99805.00;2099733;28;20037;-78
2023/07/30 01:39:33;;;;;;;0.55;0.50;;;;;;;19.43;74.87;99795.59;2092218;28;20025;-79
2023/07/30 01:40:37;;;;;;;1.17;0.80;;;;;;;19.42;74.71;99801.41;2089032;28;20049;-78
2023/07/30 01:41:39;;;;;;;1.45;0.65;;;;;;;19.40;74.96;99795.53;2091731;28;20040;-78
2023/07/30 01:42:44;;;;;;;1.10;0.80;;;;;;;19.40;74.90;99804.47;2083384;28;20042;-78
2023/07/30 01:43:45;;;;;;;1.08;0.80;;;;;;;19.38;74.99;99811.44;2084126;28;20026;-78
2023/07/30 01:44:47;;;;;;;1.50;0.90;;;;;;;19.37;75.11;99807.13;2099712;28;20029;-78
2023/07/30 01:45:49;;;;;;;2.03;0.90;;;;;;;19.36;75.19;99821.91;2106855;28;20021;-78
2023/07/30 01:46:53;;;;;;;0.70;0.70;;;;;;;19.35;75.25;99825.78;2099783;28;20080;-78
2023/07/30 01:47:58;;;;;;;0.77;0.68;;;;;;;19.33;75.30;99820.69;2099670;28;20084;-78
2023/07/30 01:49:00;;;;;;;1.88;0.95;;;;;;;19.31;75.26;99822.19;2090927;28;21336;-78
2023/07/30 01:50:01;;;;;;;1.15;0.80;;;;;;;19.29;75.13;99821.75;2099883;28;20029;-79
2023/07/30 01:51:05;;;;;;;1.30;0.90;;;;;;;19.28;75.35;99817.44;2100064;28;20021;-79
2023/07/30 01:52:08;;;;;;;1.05;0.80;;;;;;;19.27;75.30;99824.06;2091894;28;20107;-79
2023/07/30 01:53:10;;;;;;;1.02;0.70;;;;;;;19.25;75.48;99826.31;2083276;28;20022;-79
2023/07/30 01:54:12;;;;;;;1.55;0.80;;;;;;;19.24;75.30;99831.00;2099587;28;20044;-79
2023/07/30 01:55:15;;;;;;;1.10;0.85;;;;;;;19.22;75.52;99827.81;2101043;28;20980;-78
2023/07/30 01:56:16;;;;;;;1.02;0.80;;;;;;;19.20;75.59;99824.69;2091254;28;21245;-78
2023/07/30 01:57:23;;;;;;;1.38;1.05;;;;;;;19.19;75.34;99814.91;2098277;28;20040;-79
2023/07/30 01:58:24;;;;;;;2.35;1.10;;;;;;;19.18;75.67;99822.28;2088185;28;20119;-78
2023/07/30 01:59:28;;;;;;;2.72;1.10;;;;;;;19.17;75.57;99826.16;2091603;28;20034;-79
2023/07/30 02:00:33;;;;;;;1.20;0.80;;;;;;;19.16;75.82;99827.28;2091992;28;20025;-79
2023/07/30 02:01:42;;;;;;;1.52;0.88;;;;;;;19.14;75.83;99821.44;2100527;28;20041;-79
2023/07/30 02:02:43;;;;;;;0.90;0.80;;;;;;;19.15;75.93;99828.44;2099666;28;20914;-79
2023/07/30 02:03:48;;;;;;;1.20;0.93;;;;;;;19.15;75.94;99831.19;2099977;28;20111;-79
2023/07/30 02:04:50;;;;;;;1.75;0.90;;;;;;;19.11;75.87;99822.13;2099874;28;20029;-80
2023/07/30 02:05:51;;;;;;;1.35;1.05;;;;;;;19.12;76.03;99833.81;2097692;28;20040;-80
2023/07/30 02:06:53;;;;;;;2.78;1.00;;;;;;;19.11;76.11;99843.94;2108237;28;20016;-79
2023/07/30 02:07:58;;;;;;;2.40;0.98;;;;;;;19.11;76.21;99833.03;2091305;28;20040;-79
2023/07/30 02:09:02;;;;;;;1.60;1.20;;;;;;;19.09;76.19;99840.75;2092185;28;20034;-80
2023/07/30 02:10:05;;;;;;;0.90;0.80;;;;;;;19.08;76.31;99836.47;2099563;28;20029;-80
2023/07/30 02:11:07;;;;;;;2.45;0.98;;;;;;;19.07;76.23;99837.59;2108440;28;20044;-80
2023/07/30 02:12:09;;;;;;;2.15;1.00;;;;;;;19.07;76.16;99840.31;2107896;28;20151;-79
2023/07/30 02:13:11;;;;;;;1.17;1.00;;;;;;;19.06;76.38;99836.00;2100067;28;20860;-80
2023/07/30 02:14:13;;;;;;;1.20;0.90;;;;;;;19.05;76.27;99834.44;2108352;28;20147;-80
2023/07/30 02:15:14;;;;;;;1.20;1.00;;;;;;;19.06;76.42;99836.00;2105546;28;20840;-80
2023/07/30 02:16:16;;;;;;;1.13;0.80;;;;;;;19.06;76.53;99843.41;2099748;28;20032;-80
2023/07/30 02:17:18;;;;;;;1.38;0.90;;;;;;;19.05;76.48;99834.44;2090834;28;20029;-80
2023/07/30 02:18:19;;;;;;;1.90;0.90;;;;;;;19.05;76.43;99839.91;2090348;28;20131;-80
2023/07/30 02:19:21;;;;;;;1.25;1.00;;;;;;;19.05;76.56;99841.84;2099651;28;20029;-80
2023/07/30 02:20:23;;;;;;;2.05;1.00;;;;;;;19.05;76.58;99839.09;2107684;28;20036;-79
2023/07/30 02:21:27;;;;;;;1.13;0.90;;;;;;;19.03;76.58;99844.91;2096632;28;20787;-78
2023/07/30 02:22:28;;;;;;;1.30;0.98;;;;;;;19.01;76.62;99844.47;2091321;28;20021;-79
2023/07/30 02:23:30;;;;;;;2.38;1.00;;;;;;;19.02;76.68;99846.03;2091200;28;20022;-79
2023/07/30 02:24:32;;;;;;;1.25;0.90;;;;;;;19.01;76.71;99851.84;2099412;28;20021;-78
2023/07/30 02:25:34;;;;;;;1.00;0.90;;;;;;;19.01;76.79;99843.66;2110608;28;20071;-79
2023/07/30 02:26:36;;;;;;;2.88;1.02;;;;;;;18.97;76.68;99844.38;2099546;28;20136;-79
2023/07/30 02:27:39;;;;;;;1.25;0.90;;;;;;;18.97;76.46;99846.31;2100972;27;20067;-78
2023/07/30 02:28:46;;;;;;;2.92;1.30;;;;;;;18.98;76.72;99834.28;2095683;28;20062;-79
2023/07/30 02:29:48;;;;;;;1.52;0.90;;;;;;;18.97;76.82;99840.84;2099311;28;20902;-78
2023/07/30 02:30:52;;;;;;;1.52;1.08;;;;;;;18.96;76.85;99842.00;2094544;28;20093;-79
2023/07/30 02:32:00;;;;;;;1.20;1.00;;;;;;;18.94;76.79;99836.91;2092808;28;20036;-79
2023/07/30 02:33:01;;;;;;;1.30;1.00;;;;;;;18.94;76.79;99830.66;2108307;28;20015;-78
2023/07/30 02:34:03;;;;;;;1.88;1.08;;;;;;;18.92;76.77;99835.69;2099441;28;20868;-78
2023/07/30 02:35:06;;;;;;;2.95;1.25;;;;;;;18.93;76.82;99839.97;2090849;28;20040;-78
2023/07/30 02:36:10;;;;;;;1.73;1.25;;;;;;;18.91;76.79;99842.25;2098657;28;20151;-78
2023/07/30 02:37:12;;;;;;;1.55;1.10;;;;;;;18.88;76.84;99837.50;2090567;28;20971;-78
2023/07/30 02:38:16;;;;;;;1.90;1.13;;;;;;;18.88;76.86;99841.03;2091465;28;20066;-78
2023/07/30 02:39:23;;;;;;;1.35;1.05;;;;;;;18.85;76.92;99847.19;2100326;28;20114;-78
2023/07/30 02:40:31;;;;;;;1.27;1.00;;;;;;;18.87;76.99;99853.06;2107593;28;20124;-78
2023/07/30 02:41:38;;;;;;;1.35;1.10;;;;;;;18.86;76.96;99853.44;2107101;28;20021;-78
2023/07/30 02:42:40;;;;;;;1.10;1.00;;;;;;;18.86;77.11;99842.53;2107516;28;20094;-78
2023/07/30 02:43:43;;;;;;;1.33;1.00;;;;;;;18.81;77.26;99848.25;2106933;28;20855;-78
2023/07/30 02:44:46;;;;;;;1.63;1.10;;;;;;;18.82;77.20;99842.47;2114710;28;20075;-78
2023/07/30 02:45:50;;;;;;;2.00;1.20;;;;;;;18.83;77.15;99854.13;2097485;28;20246;-78
2023/07/30 02:46:55;;;;;;;1.38;1.13;;;;;;;18.81;77.10;99856.41;2099068;28;20041;-78
2023/07/30 02:47:57;;;;;;;1.80;1.20;;;;;;;18.81;77.44;99853.69;2096264;28;20135;-78
2023/07/30 02:48:58;;;;;;;1.55;0.85;;;;;;;18.76;77.19;99854.75;2089709;28;20132;-78
2023/07/30 02:50:03;;;;;;;1.40;1.08;;;;;;;18.79;77.19;99854.06;2090066;28;20017;-78
2023/07/30 02:51:05;;;;;;;2.17;1.10;;;;;;;18.74;77.31;99844.19;2098144;28;20860;-79
2023/07/30 02:52:11;;;;;;;1.23;1.10;;;;;;;18.77;77.28;99847.38;2098644;28;20859;-79
2023/07/30 02:53:15;;;;;;;1.25;1.13;;;;;;;18.78;77.39;99851.66;2115398;27;20843;-79
2023/07/30 02:54:20;;;;;;;1.23;1.10;;;;;;;18.78;77.36;99855.19;2122601;27;20024;-79
2023/07/30 02:55:22;;;;;;;1.38;1.10;;;;;;;18.75;77.39;99861.31;2097957;28;20076;-77
2023/07/30 02:56:24;;;;;;;1.95;1.50;;;;;;;18.75;77.31;99855.88;2098404;28;20084;-77
2023/07/30 02:57:25;;;;;;;0.90;0.80;;;;;;;18.76;77.50;99857.47;2098408;28;20021;-78
2023/07/30 02:58:27;;;;;;;1.70;0.93;;;;;;;18.76;77.47;99860.19;2099078;28;20040;-78
2023/07/30 02:59:29;;;;;;;1.08;0.90;;;;;;;18.77;77.49;99864.50;2090273;28;20038;-78
2023/07/30 03:00:31;;;;;;;2.75;1.05;;;;;;;18.76;77.47;99865.66;2091385;28;20746;-78
2023/07/30 03:01:33;;;;;;;1.15;0.98;;;;;;;18.75;77.43;99864.81;2099426;28;20037;-77
2023/07/30 03:02:35;;;;;;;1.90;0.95;;;;;;;18.76;77.33;99865.66;2098952;28;20042;-77
2023/07/30 03:03:37;;;;;;;1.30;0.90;;;;;;;18.77;77.36;99864.50;2090681;28;20510;-79
2023/07/30 03:04:38;;;;;;;0.90;0.75;;;;;;;18.77;77.35;99856.31;2088877;28;20048;-79
2023/07/30 03:05:44;;;;;;;1.30;1.00;;;;;;;18.78;77.29;99859.84;2087496;28;20833;-78
2023/07/30 03:06:48;;;;;;;2.53;1.10;;;;;;;18.79;77.36;99864.94;2090101;28;20882;-78
2023/07/30 03:07:50;;;;;;;0.90;0.90;;;;;;;18.79;77.33;99862.22;2089627;28;21304;-78
2023/07/30 03:08:51;;;;;;;1.65;1.10;;;;;;;18.81;77.24;99862.66;2097861;28;21435;-78
2023/07/30 03:09:53;;;;;;;1.23;1.08;;;;;;;18.80;77.17;99863.00;2105762;28;20075;-78
2023/07/30 03:10:59;;;;;;;1.13;0.93;;;;;;;18.80;77.16;99861.06;2089581;28;20076;-78
2023/07/30 03:12:08;;;;;;;1.05;0.95;;;;;;;18.80;77.22;99866.53;2112225;28;20036;-78
2023/07/30 03:13:14;;;;;;;1.42;0.90;;;;;;;18.83;77.09;99868.53;2089218;28;20025;-78
2023/07/30 03:14:16;;;;;;;1.17;1.08;;;;;;;18.83;77.23;99868.53;2082174;28;20029;-78
2023/07/30 03:15:17;;;;;;;1.25;0.90;;;;;;;18.82;77.24;99864.25;2081280;28;20860;-78
2023/07/30 03:16:19;;;;;;;1.35;1.10;;;;;;;18.86;77.16;99869.78;2089700;28;20091;-78
2023/07/30 03:17:22;;;;;;;1.13;0.80;;;;;;;18.86;77.43;99859.66;2080852;28;20941;-78
2023/07/30 03:18:26;;;;;;;1.60;1.00;;;;;;;18.91;77.31;99866.78;2073836;28;20094;-78
2023/07/30 03:19:27;;;;;;;0.90;0.88;;;;;;;18.93;77.34;99859.06;2081439;28;21191;-78
2023/07/30 03:20:30;;;;;;;1.00;0.80;;;;;;;18.93;77.48;99865.28;2097991;28;20029;-79
2023/07/30 03:21:34;;;;;;;1.10;0.88;;;;;;;18.96;77.29;99872.75;2113998;28;20097;-78
2023/07/30 03:22:38;;;;;;;1.02;0.80;;;;;;;18.96;77.28;99874.69;2106034;28;20032;-78
2023/07/30 03:23:44;;;;;;;1.08;0.98;;;;;;;18.99;77.03;99869.34;2105242;28;20032;-79
2023/07/30 03:24:48;;;;;;;1.00;0.90;;;;;;;19.02;77.00;99872.50;2081375;28;20034;-79
2023/07/30 03:25:52;;;;;;;0.90;0.90;;;;;;;19.03;76.83;99869.41;2082190;28;20172;-79
2023/07/30 03:26:57;;;;;;;1.13;1.02;;;;;;;19.04;76.82;99871.03;2082740;28;20061;-79
2023/07/30 03:27:59;;;;;;;1.27;1.10;;;;;;;19.06;76.69;99873.38;2093505;28;20056;-78
2023/07/30 03:29:01;;;;;;;1.42;0.77;;;;;;;19.08;76.46;99874.59;2089730;28;20033;-78
2023/07/30 03:30:04;;;;;;;2.15;1.20;;;;;;;19.06;76.39;99879.59;2094051;28;20053;-78
2023/07/30 03:31:08;;;;;;;1.17;1.05;;;;;;;19.10;76.40;99880.47;2089394;28;20139;-78
2023/07/30 03:32:12;;;;;;;2.10;1.05;;;;;;;19.11;76.32;99882.09;2091612;28;20041;-78
2023/07/30 03:33:16;;;;;;;1.00;0.90;;;;;;;19.11;76.45;99879.34;2105337;28;20028;-79
2023/07/30 03:34:18;;;;;;;1.10;0.93;;;;;;;19.15;76.58;99876.72;2098525;28;20882;-78
2023/07/30 03:35:23;;;;;;;1.70;1.13;;;;;;;19.12;76.43;99872.75;2106058;28;20124;-78
2023/07/30 03:36:25;;;;;;;1.10;1.00;;;;;;;19.15;76.30;99882.94;2115357;27;20954;-78
2023/07/30 03:37:30;;;;;;;1.75;1.10;;;;;;;19.20;76.45;99879.19;2113936;28;20027;-78
2023/07/30 03:38:34;;;;;;;1.30;1.00;;;;;;;19.13;76.53;99863.44;2107413;27;20020;-78
2023/07/30 03:39:40;;;;;;;1.48;1.23;;;;;;;19.26;76.53;99879.69;2114799;28;20164;-78
2023/07/30 03:40:47;;;;;;;1.40;1.00;;;;;;;19.29;76.58;99884.44;2099773;28;20895;-78
2023/07/30 03:41:49;;;;;;;1.27;1.10;;;;;;;19.31;76.61;99880.22;2099437;28;20902;-78
2023/07/30 03:42:53;;;;;;;1.15;1.05;;;;;;;19.34;76.48;99882.22;2107174;28;20803;-77
2023/07/30 03:43:56;;;;;;;1.42;1.10;;;;;;;19.35;76.47;99881.06;2108099;28;20040;-78
2023/07/30 03:44:59;;;;;;;2.00;1.05;;;;;;;19.41;76.48;99878.88;2106900;28;20028;-78
2023/07/30 03:46:06;;;;;;;1.20;1.00;;;;;;;19.47;76.41;99882.13;2091213;28;20033;-78
2023/07/30 03:47:10;;;;;;;1.00;0.90;;;;;;;19.51;76.38;99872.88;2093065;28;20030;-78
2023/07/30 03:48:12;;;;;;;0.90;0.80;;;;;;;19.56;76.20;99875.34;2098687;28;20075;-78
2023/07/30 03:49:16;;;;;;;1.65;1.02;;;;;;;19.62;76.11;99873.13;2090507;28;20040;-78
2023/07/30 03:50:18;;;;;;;1.77;1.17;;;;;;;19.67;76.15;99873.69;2099628;27;20111;-78
2023/07/30 03:51:20;;;;;;;1.98;1.00;;;;;;;19.74;76.07;99869.53;2107022;28;20048;-78
2023/07/30 03:52:21;;;;;;;1.00;0.90;;;;;;;19.79;75.78;99877.41;2098807;28;20087;-78
2023/07/30 03:53:23;;;;;;;1.20;1.00;;;;;;;19.85;75.94;99882.22;2090883;28;20071;-78
2023/07/30 03:54:24;;;;;;;1.50;1.20;;;;;;;19.90;75.37;99878.44;2090265;28;20025;-78
2023/07/30 03:55:31;;;;;;;1.83;1.20;;;;;;;19.97;75.40;99878.56;2100380;28;20067;-78
2023/07/30 03:56:36;;;;;;;0.90;0.80;;;;;;;20.03;75.09;99874.41;2107725;28;20032;-78
2023/07/30 03:57:38;;;;;;;1.88;1.00;;;;;;;20.09;74.79;99878.44;2107643;28;20023;-77
2023/07/30 03:58:39;;;;;;;1.00;0.90;;;;;;;20.15;74.67;99870.75;2099033;28;20040;-78
2023/07/30 03:59:46;;;;;;;1.48;0.90;;;;;;;20.21;74.52;99871.25;2090867;28;20915;-78
2023/07/30 04:00:51;;;;;;;2.28;1.13;;;;;;;20.25;74.46;99869.38;2101160;27;20043;-77
2023/07/30 04:01:52;;;;;;;1.00;0.90;;;;;;;20.32;74.23;99874.97;2098875;28;20099;-78
2023/07/30 04:02:56;;;;;;;1.83;1.10;;;;;;;20.36;74.02;99871.19;2090627;28;20030;-78
2023/07/30 04:04:00;;;;;;;1.02;0.93;;;;;;;20.40;73.82;99868.53;2107605;28;20787;-78
2023/07/30 04:05:05;;;;;;;1.17;1.02;;;;;;;20.47;73.93;99874.09;2090749;28;20726;-78
2023/07/30 04:06:07;;;;;;;1.27;1.05;;;;;;;20.54;73.66;99879.72;2091881;28;20033;-78
2023/07/30 04:07:09;;;;;;;1.40;1.10;;;;;;;20.60;73.66;99883.72;2107075;28;20032;-78
2023/07/30 04:08:10;;;;;;;1.20;1.08;;;;;;;20.67;73.72;99879.56;2090748;28;20025;-78
2023/07/30 04:09:12;;;;;;;1.17;1.00;;;;;;;20.74;73.42;99876.94;2090231;28;20837;-78
2023/07/30 04:10:16;;;;;;;1.58;1.38;;;;;;;20.81;73.30;99879.81;2091110;28;20057;-78
2023/07/30 04:11:18;;;;;;;2.08;1.10;;;;;;;20.87;73.12;99883.84;2098489;28;20025;-78
2023/07/30 04:12:21;;;;;;;1.70;1.20;;;;;;;20.93;73.01;99887.03;2088043;28;20141;-78
2023/07/30 04:13:25;;;;;;;1.25;1.10;;;;;;;20.97;72.84;99879.69;2090983;28;20204;-79
2023/07/30 04:14:29;;;;;;;2.45;1.10;;;;;;;21.02;72.52;99888.34;2090128;28;20083;-79
2023/07/30 04:15:31;;;;;;;1.88;1.30;;;;;;;21.05;72.38;99875.91;2089953;28;20030;-78
2023/07/30 04:16:39;;;;;;;1.42;1.10;;;;;;;21.10;72.33;99883.81;2083511;28;20053;-79
2023/07/30 04:17:43;;;;;;;1.35;1.23;;;;;;;21.15;72.29;99885.44;2082521;28;20156;-79
2023/07/30 04:18:52;;;;;;;2.35;1.40;;;;;;;21.17;72.32;99883.91;2083937;28;20038;-79
2023/07/30 04:19:54;;;;;;;2.20;1.45;;;;;;;21.21;72.02;99892.97;2100578;28;20021;-79
2023/07/30 04:20:57;;;;;;;2.00;1.55;;;;;;;21.24;71.49;99888.72;2090317;28;20033;-79
2023/07/30 04:22:00;;;;;;;1.80;1.50;;;;;;;21.23;71.68;99881.66;2083111;28;20160;-79
2023/07/30 04:23:01;;;;;;;3.33;2.42;;;;;;;21.30;71.80;99892.72;2107447;28;20159;-80
2023/07/30 04:24:05;;;;;;;1.42;1.30;;;;;;;21.31;71.79;99888.81;2106966;28;20035;-80
2023/07/30 04:25:10;;;;;;;1.52;1.33;;;;;;;21.37;71.57;99892.06;2107661;28;20031;-78
2023/07/30 04:26:15;;;;;;;1.40;1.30;;;;;;;21.39;71.68;99882.34;2106555;28;20034;-78
2023/07/30 04:27:17;;;;;;;1.92;1.42;;;;;;;21.43;71.56;99883.16;2090921;28;20131;-78
2023/07/30 04:28:19;;;;;;;1.55;1.30;;;;;;;21.46;71.55;99889.84;2097409;28;20036;-78
2023/07/30 04:29:20;;;;;;;2.25;1.50;;;;;;;21.45;71.53;99882.81;2090669;28;20041;-77
2023/07/30 04:30:27;;;;;;;1.98;1.77;;;;;;;21.47;71.46;99881.28;2090905;28;20044;-77
2023/07/30 04:31:32;;;;;;;1.73;1.40;;;;;;;21.48;71.29;99880.13;2091696;28;20092;-77
2023/07/30 04:32:33;;;;;;;2.20;1.40;;;;;;;21.54;71.59;99888.81;2099920;28;20018;-77
2023/07/30 04:33:36;;;;;;;2.15;1.38;;;;;;;21.57;71.68;99890.81;2090148;28;20021;-77
2023/07/30 04:34:38;;;;;;;2.63;1.23;;;;;;;21.59;71.73;99888.47;2090965;28;20038;-77
2023/07/30 04:35:40;;;;;;;1.80;1.30;;;;;;;21.66;71.88;99894.06;2106938;28;20082;-77
2023/07/30 04:36:42;;;;;;;1.38;1.27;;;;;;;21.74;71.98;99886.75;2090363;28;20119;-77
2023/07/30 04:37:49;;;;;;;1.88;1.50;;;;;;;21.82;71.96;99893.91;2091496;28;20022;-78
2023/07/30 04:38:55;;;;;;;1.75;1.45;;;;;;;21.87;71.68;99898.25;2090849;28;20077;-78
2023/07/30 04:40:03;;;;;;;1.63;1.50;;;;;;;21.94;71.65;99899.16;2083984;28;20133;-78
2023/07/30 04:41:09;;;;;;;2.85;1.70;;;;;;;21.98;71.38;99897.22;2091455;28;20037;-78
2023/07/30 04:42:17;;;;;;;2.13;1.80;;;;;;;22.00;71.24;99902.31;2098950;28;20018;-78
2023/07/30 04:43:19;;;;;;;2.70;1.88;;;;;;;22.02;71.10;99902.75;2115269;28;20079;-78
2023/07/30 04:44:26;;;;;;;2.72;1.85;;;;;;;22.05;71.19;99903.97;2105649;28;20150;-78
2023/07/30 04:45:30;;;;;;;3.13;2.13;;;;;;;22.06;70.88;99900.84;2082669;28;20022;-78
2023/07/30 04:46:38;;;;;;;6.03;1.63;;;;;;;22.06;70.81;99905.53;2075586;28;20873;-78
2023/07/30 04:47:40;;;;;;;2.22;1.60;;;;;;;22.03;70.71;99901.59;2077848;28;20038;-78
2023/07/30 04:48:44;;;;;;;2.03;1.48;;;;;;;22.07;70.75;99907.09;2084077;28;20049;-77
2023/07/30 04:49:51;;;;;;;2.22;1.77;;;;;;;22.08;70.77;99916.91;2084846;28;20041;-79
2023/07/30 04:50:56;;;;;;;2.17;1.55;;;;;;;22.08;70.72;99914.94;2092997;28;20143;-79
2023/07/30 04:51:58;;;;;;;1.88;1.38;;;;;;;22.08;70.78;99914.94;2083403;28;20041;-79
2023/07/30 04:52:59;;;;;;;1.58;1.38;;;;;;;22.06;70.72;99902.78;2090892;28;20017;-78
2023/07/30 04:54:01;;;;;;;3.20;1.70;;;;;;;22.09;70.71;99913.78;2108261;28;20071;-79
2023/07/30 04:55:02;;;;;;;3.35;1.95;;;;;;;22.09;70.64;99915.72;2091553;28;20801;-79
2023/07/30 04:56:06;;;;;;;2.10;1.90;;;;;;;22.09;70.87;99915.72;2092449;28;20046;-79
2023/07/30 04:57:08;;;;;;;2.08;1.77;;;;;;;22.06;70.62;99911.00;2099891;28;20025;-79
2023/07/30 04:58:09;;;;;;;2.58;1.63;;;;;;;22.07;70.59;99910.66;2091936;28;20144;-79
2023/07/30 04:59:14;;;;;;;2.63;1.80;;;;;;;22.07;70.65;99912.56;2100061;28;20033;-79
2023/07/30 05:00:16;;;;;;;3.80;2.00;;;;;;;22.05;70.75;99914.91;2084163;28;20177;-79